sensor_id;sensor_type;location;lat;lon;timestamp;P1;durP1;ratioP1;P2;durP2;ratioP2
19946;SDS011;10135;50.702;7.276;2022-12-08T06:02:12;5.63;;;4.50;;
19946;SDS011;10135;50.702;7.276;2022-12-08T06:04:13;5.70;;;4.67;;
19946;SDS011;10135;50.702;7.276;2022-12-08T06:06:14;6.60;;;4.43;;
19946;SDS011;10135;50.702;7.276;2022-12-08T06:08:15;5.87;;;4.73;;
19946;SDS011;10135;50.702;7.276;2022-12-08T06:10:16;10.47;;;5.03;;
19946;SDS011;10135;50.702;7.276;2022-12-08T06:12:17;7.63;;;5.30;;
19946;SDS011;10135;50.702;7.276;2022-12-08T06:14:17;7.50;;;4.80;;
19946;SDS011;10135;50.702;7.276;2022-12-08T06:16:18;6.23;;;5.27;;
19946;SDS011;10135;50.702;7.276;2022-12-08T06:18:19;7.70;;;5.30;;
19946;SDS011;10135;50.702;7.276;2022-12-08T06:20:19;6.83;;;4.90;;
19946;SDS011;10135;50.702;7.276;2022-12-08T06:22:20;9.87;;;5.50;;
19946;SDS011;10135;50.702;7.276;2022-12-08T06:24:21;7.17;;;5.37;;
19946;SDS011;10135;50.702;7.276;2022-12-08T06:26:21;7.10;;;5.30;;
19946;SDS011;10135;50.702;7.276;2022-12-08T06:28:22;8.50;;;5.60;;
19946;SDS011;10135;50.702;7.276;2022-12-08T06:30:23;7.20;;;5.27;;
19946;SDS011;10135;50.702;7.276;2022-12-08T06:32:24;8.30;;;5.77;;
19946;SDS011;10135;50.702;7.276;2022-12-08T06:34:25;10.23;;;5.87;;
19946;SDS011;10135;50.702;7.276;2022-12-08T06:36:26;8.30;;;5.47;;
19946;SDS011;10135;50.702;7.276;2022-12-08T06:38:27;7.73;;;5.50;;
19946;SDS011;10135;50.702;7.276;2022-12-08T06:40:29;9.13;;;5.73;;
19946;SDS011;10135;50.702;7.276;2022-12-08T06:42:29;8.30;;;5.70;;
19946;SDS011;10135;50.702;7.276;2022-12-08T06:44:46;7.23;;;5.53;;
19946;SDS011;10135;50.702;7.276;2022-12-08T06:46:47;6.73;;;5.30;;
19946;SDS011;10135;50.702;7.276;2022-12-08T06:48:47;8.67;;;5.23;;
19946;SDS011;10135;50.702;7.276;2022-12-08T06:50:49;8.50;;;5.77;;
19946;SDS011;10135;50.702;7.276;2022-12-08T06:52:50;11.63;;;5.53;;
19946;SDS011;10135;50.702;7.276;2022-12-08T06:54:50;8.77;;;6.00;;
19946;SDS011;10135;50.702;7.276;2022-12-08T06:56:51;8.27;;;5.60;;
19946;SDS011;10135;50.702;7.276;2022-12-08T06:58:52;9.60;;;5.90;;
19946;SDS011;10135;50.702;7.276;2022-12-08T07:00:52;9.70;;;6.00;;
19946;SDS011;10135;50.702;7.276;2022-12-08T07:02:53;9.67;;;5.50;;
19946;SDS011;10135;50.702;7.276;2022-12-08T07:04:54;8.10;;;5.57;;
19946;SDS011;10135;50.702;7.276;2022-12-08T07:06:54;9.53;;;5.13;;
19946;SDS011;10135;50.702;7.276;2022-12-08T07:08:55;7.83;;;5.90;;
19946;SDS011;10135;50.702;7.276;2022-12-08T07:10:55;9.47;;;5.17;;
19946;SDS011;10135;50.702;7.276;2022-12-08T07:12:56;8.13;;;5.03;;
19946;SDS011;10135;50.702;7.276;2022-12-08T07:14:57;6.63;;;5.00;;
19946;SDS011;10135;50.702;7.276;2022-12-08T07:16:57;7.40;;;5.17;;
19946;SDS011;10135;50.702;7.276;2022-12-08T07:18:59;8.30;;;5.13;;
19946;SDS011;10135;50.702;7.276;2022-12-08T07:21:03;6.57;;;4.70;;
19946;SDS011;10135;50.702;7.276;2022-12-08T07:23:06;7.77;;;4.80;;
19946;SDS011;10135;50.702;7.276;2022-12-08T07:25:07;8.23;;;5.03;;
19946;SDS011;10135;50.702;7.276;2022-12-08T07:27:08;6.30;;;4.80;;
19946;SDS011;10135;50.702;7.276;2022-12-08T07:29:08;7.60;;;4.70;;
19946;SDS011;10135;50.702;7.276;2022-12-08T07:31:17;7.90;;;4.90;;
19946;SDS011;10135;50.702;7.276;2022-12-08T07:33:20;7.33;;;4.60;;
19946;SDS011;10135;50.702;7.276;2022-12-08T07:35:21;8.77;;;4.83;;
19946;SDS011;10135;50.702;7.276;2022-12-08T07:37:22;7.23;;;4.57;;
19946;SDS011;10135;50.702;7.276;2022-12-08T07:39:22;6.50;;;5.17;;
19946;SDS011;10135;50.702;7.276;2022-12-08T07:41:24;7.47;;;5.00;;
19946;SDS011;10135;50.702;7.276;2022-12-08T07:43:25;8.27;;;5.03;;
19946;SDS011;10135;50.702;7.276;2022-12-08T07:45:25;5.87;;;4.57;;
19946;SDS011;10135;50.702;7.276;2022-12-08T07:47:26;6.27;;;4.53;;
19946;SDS011;10135;50.702;7.276;2022-12-08T07:49:27;4.90;;;4.40;;
19946;SDS011;10135;50.702;7.276;2022-12-08T07:51:27;7.77;;;4.77;;
19946;SDS011;10135;50.702;7.276;2022-12-08T07:53:28;5.87;;;4.50;;
19946;SDS011;10135;50.702;7.276;2022-12-08T07:55:29;7.07;;;4.83;;
19946;SDS011;10135;50.702;7.276;2022-12-08T07:57:30;7.50;;;4.50;;
19946;SDS011;10135;50.702;7.276;2022-12-08T07:59:31;5.40;;;4.47;;
19946;SDS011;10135;50.702;7.276;2022-12-08T08:01:32;6.57;;;4.40;;
19946;SDS011;10135;50.702;7.276;2022-12-08T08:03:33;5.53;;;4.50;;
19946;SDS011;10135;50.702;7.276;2022-12-08T08:05:34;9.33;;;4.60;;
19946;SDS011;10135;50.702;7.276;2022-12-08T08:07:35;5.07;;;4.53;;
19946;SDS011;10135;50.702;7.276;2022-12-08T08:09:36;5.37;;;4.50;;
19946;SDS011;10135;50.702;7.276;2022-12-08T08:11:37;7.37;;;4.77;;
19946;SDS011;10135;50.702;7.276;2022-12-08T08:13:37;8.27;;;4.77;;
19946;SDS011;10135;50.702;7.276;2022-12-08T08:15:38;6.60;;;4.90;;
19946;SDS011;10135;50.702;7.276;2022-12-08T08:17:39;8.53;;;5.10;;
19946;SDS011;10135;50.702;7.276;2022-12-08T08:19:40;5.67;;;4.73;;
19946;SDS011;10135;50.702;7.276;2022-12-08T08:21:40;6.13;;;4.80;;
19946;SDS011;10135;50.702;7.276;2022-12-08T08:23:41;5.07;;;4.57;;
19946;SDS011;10135;50.702;7.276;2022-12-08T08:25:42;4.60;;;4.17;;
19946;SDS011;10135;50.702;7.276;2022-12-08T08:27:42;5.80;;;4.63;;
19946;SDS011;10135;50.702;7.276;2022-12-08T08:29:43;5.83;;;4.53;;
19946;SDS011;10135;50.702;7.276;2022-12-08T08:31:44;7.63;;;5.00;;
19946;SDS011;10135;50.702;7.276;2022-12-08T08:33:44;6.93;;;5.03;;
19946;SDS011;10135;50.702;7.276;2022-12-08T08:35:47;5.80;;;4.90;;
19946;SDS011;10135;50.702;7.276;2022-12-08T08:37:48;5.23;;;4.73;;
19946;SDS011;10135;50.702;7.276;2022-12-08T08:39:48;6.07;;;5.00;;
19946;SDS011;10135;50.702;7.276;2022-12-08T08:41:49;6.30;;;4.90;;
19946;SDS011;10135;50.702;7.276;2022-12-08T08:43:50;5.73;;;4.70;;
19946;SDS011;10135;50.702;7.276;2022-12-08T08:45:50;7.20;;;5.10;;
19946;SDS011;10135;50.702;7.276;2022-12-08T08:47:51;5.87;;;4.70;;
19946;SDS011;10135;50.702;7.276;2022-12-08T08:49:51;9.43;;;5.17;;
19946;SDS011;10135;50.702;7.276;2022-12-08T08:51:52;6.67;;;4.83;;
19946;SDS011;10135;50.702;7.276;2022-12-08T08:53:53;6.13;;;4.93;;
19946;SDS011;10135;50.702;7.276;2022-12-08T08:55:53;6.33;;;4.87;;
19946;SDS011;10135;50.702;7.276;2022-12-08T08:57:54;7.10;;;4.90;;
19946;SDS011;10135;50.702;7.276;2022-12-08T08:59:55;8.03;;;5.43;;
19946;SDS011;10135;50.702;7.276;2022-12-08T09:01:55;7.13;;;4.80;;
19946;SDS011;10135;50.702;7.276;2022-12-08T09:03:56;8.10;;;5.10;;
19946;SDS011;10135;50.702;7.276;2022-12-08T09:05:57;7.60;;;5.07;;
19946;SDS011;10135;50.702;7.276;2022-12-08T09:07:58;6.90;;;4.90;;
19946;SDS011;10135;50.702;7.276;2022-12-08T09:09:58;8.13;;;4.70;;
19946;SDS011;10135;50.702;7.276;2022-12-08T09:11:59;7.77;;;4.77;;
19946;SDS011;10135;50.702;7.276;2022-12-08T09:14:00;6.20;;;4.83;;
19946;SDS011;10135;50.702;7.276;2022-12-08T09:16:01;4.73;;;4.23;;
19946;SDS011;10135;50.702;7.276;2022-12-08T09:18:07;8.60;;;4.97;;
19946;SDS011;10135;50.702;7.276;2022-12-08T09:20:07;7.37;;;5.17;;
19946;SDS011;10135;50.702;7.276;2022-12-08T09:22:08;5.63;;;4.67;;
19946;SDS011;10135;50.702;7.276;2022-12-08T09:24:09;5.70;;;4.90;;
19946;SDS011;10135;50.702;7.276;2022-12-08T09:26:14;8.73;;;5.00;;
19946;SDS011;10135;50.702;7.276;2022-12-08T09:28:15;8.60;;;4.90;;
19946;SDS011;10135;50.702;7.276;2022-12-08T09:30:15;7.97;;;4.87;;
19946;SDS011;10135;50.702;7.276;2022-12-08T09:32:16;5.53;;;4.63;;
19946;SDS011;10135;50.702;7.276;2022-12-08T09:34:17;7.07;;;4.90;;
19946;SDS011;10135;50.702;7.276;2022-12-08T09:36:18;7.17;;;4.90;;
19946;SDS011;10135;50.702;7.276;2022-12-08T09:38:19;4.87;;;4.40;;
19946;SDS011;10135;50.702;7.276;2022-12-08T09:40:21;6.30;;;5.07;;
19946;SDS011;10135;50.702;7.276;2022-12-08T09:45:10;7.77;;;4.70;;
19946;SDS011;10135;50.702;7.276;2022-12-08T09:47:20;7.47;;;5.07;;
19946;SDS011;10135;50.702;7.276;2022-12-08T09:49:26;7.10;;;4.73;;
19946;SDS011;10135;50.702;7.276;2022-12-08T09:51:42;5.93;;;4.40;;
19946;SDS011;10135;50.702;7.276;2022-12-08T09:53:45;7.80;;;5.00;;
19946;SDS011;10135;50.702;7.276;2022-12-08T10:00:33;6.73;;;4.67;;
19946;SDS011;10135;50.702;7.276;2022-12-08T10:02:34;5.73;;;4.53;;
19946;SDS011;10135;50.702;7.276;2022-12-08T10:04:38;5.00;;;4.50;;
19946;SDS011;10135;50.702;7.276;2022-12-08T10:06:40;6.93;;;4.97;;
19946;SDS011;10135;50.702;7.276;2022-12-08T10:14:17;7.20;;;4.63;;
19946;SDS011;10135;50.702;7.276;2022-12-08T10:16:46;7.07;;;4.87;;
19946;SDS011;10135;50.702;7.276;2022-12-08T10:18:55;9.10;;;5.63;;
19946;SDS011;10135;50.702;7.276;2022-12-08T10:23:33;5.57;;;4.90;;
19946;SDS011;10135;50.702;7.276;2022-12-08T10:25:43;8.20;;;5.10;;
19946;SDS011;10135;50.702;7.276;2022-12-08T10:27:50;6.40;;;4.90;;
19946;SDS011;10135;50.702;7.276;2022-12-08T10:29:53;6.73;;;4.97;;
19946;SDS011;10135;50.702;7.276;2022-12-08T10:31:54;6.33;;;5.00;;
19946;SDS011;10135;50.702;7.276;2022-12-08T10:34:13;6.87;;;4.60;;
19946;SDS011;10135;50.702;7.276;2022-12-08T10:36:18;6.37;;;4.90;;
19946;SDS011;10135;50.702;7.276;2022-12-08T10:38:26;9.50;;;4.87;;
19946;SDS011;10135;50.702;7.276;2022-12-08T10:40:35;4.90;;;4.50;;
19946;SDS011;10135;50.702;7.276;2022-12-08T10:42:37;6.73;;;4.43;;
19946;SDS011;10135;50.702;7.276;2022-12-08T10:45:26;4.80;;;4.30;;
19946;SDS011;10135;50.702;7.276;2022-12-08T10:47:12;6.70;;;4.70;;
19946;SDS011;10135;50.702;7.276;2022-12-08T10:49:20;4.33;;;3.77;;
19946;SDS011;10135;50.702;7.276;2022-12-08T10:53:43;5.93;;;4.00;;
19946;SDS011;10135;50.702;7.276;2022-12-08T10:55:49;5.90;;;3.93;;
19946;SDS011;10135;50.702;7.276;2022-12-08T10:58:04;5.77;;;4.30;;
19946;SDS011;10135;50.702;7.276;2022-12-08T11:00:05;6.17;;;3.90;;
19946;SDS011;10135;50.702;7.276;2022-12-08T11:02:06;5.63;;;3.97;;
19946;SDS011;10135;50.702;7.276;2022-12-08T11:04:19;4.10;;;3.70;;
19946;SDS011;10135;50.702;7.276;2022-12-08T11:06:38;6.07;;;4.00;;
19946;SDS011;10135;50.702;7.276;2022-12-08T11:08:47;5.23;;;3.87;;
19946;SDS011;10135;50.702;7.276;2022-12-08T11:10:55;4.07;;;3.67;;
19946;SDS011;10135;50.702;7.276;2022-12-08T11:12:57;7.30;;;3.73;;
19946;SDS011;10135;50.702;7.276;2022-12-08T11:15:01;5.73;;;3.60;;
19946;SDS011;10135;50.702;7.276;2022-12-08T11:17:04;7.50;;;4.13;;
19946;SDS011;10135;50.702;7.276;2022-12-08T11:19:16;8.87;;;4.20;;
19946;SDS011;10135;50.702;7.276;2022-12-08T11:21:20;6.77;;;4.43;;
19946;SDS011;10135;50.702;7.276;2022-12-08T11:23:35;4.43;;;4.03;;
19946;SDS011;10135;50.702;7.276;2022-12-08T11:25:37;4.30;;;3.90;;
19946;SDS011;10135;50.702;7.276;2022-12-08T11:27:41;4.70;;;3.93;;
19946;SDS011;10135;50.702;7.276;2022-12-08T11:29:46;5.37;;;4.27;;
19946;SDS011;10135;50.702;7.276;2022-12-08T11:31:48;4.43;;;4.00;;
19946;SDS011;10135;50.702;7.276;2022-12-08T11:33:58;5.73;;;4.50;;
19946;SDS011;10135;50.702;7.276;2022-12-08T11:36:04;7.03;;;4.67;;
19946;SDS011;10135;50.702;7.276;2022-12-08T11:38:13;5.73;;;4.10;;
19946;SDS011;10135;50.702;7.276;2022-12-08T11:40:34;5.53;;;4.00;;
19946;SDS011;10135;50.702;7.276;2022-12-08T11:45:06;8.13;;;4.33;;
19946;SDS011;10135;50.702;7.276;2022-12-08T11:47:21;7.77;;;4.47;;
19946;SDS011;10135;50.702;7.276;2022-12-08T11:49:32;6.77;;;4.53;;
19946;SDS011;10135;50.702;7.276;2022-12-08T11:51:44;4.97;;;4.27;;
19946;SDS011;10135;50.702;7.276;2022-12-08T11:56:58;5.47;;;4.23;;
19946;SDS011;10135;50.702;7.276;2022-12-08T12:01:22;5.17;;;4.30;;
19946;SDS011;10135;50.702;7.276;2022-12-08T12:03:36;6.63;;;4.53;;
19946;SDS011;10135;50.702;7.276;2022-12-08T12:13:54;8.27;;;4.33;;
19946;SDS011;10135;50.702;7.276;2022-12-08T12:16:53;7.87;;;4.87;;
19946;SDS011;10135;50.702;7.276;2022-12-08T12:19:03;8.13;;;4.83;;
19946;SDS011;10135;50.702;7.276;2022-12-08T12:23:34;5.70;;;4.23;;
19946;SDS011;10135;50.702;7.276;2022-12-08T12:25:49;6.00;;;3.90;;
19946;SDS011;10135;50.702;7.276;2022-12-08T12:27:58;6.00;;;4.00;;
19946;SDS011;10135;50.702;7.276;2022-12-08T12:30:07;6.30;;;4.60;;
19946;SDS011;10135;50.702;7.276;2022-12-08T12:32:19;6.63;;;4.10;;
19946;SDS011;10135;50.702;7.276;2022-12-08T12:34:27;6.03;;;3.10;;
19946;SDS011;10135;50.702;7.276;2022-12-08T12:36:49;5.90;;;3.93;;
19946;SDS011;10135;50.702;7.276;2022-12-08T12:38:54;3.63;;;3.30;;
19946;SDS011;10135;50.702;7.276;2022-12-08T12:41:02;7.40;;;4.13;;
19946;SDS011;10135;50.702;7.276;2022-12-08T12:47:42;4.37;;;3.00;;
19946;SDS011;10135;50.702;7.276;2022-12-08T12:50:04;3.40;;;3.00;;
19946;SDS011;10135;50.702;7.276;2022-12-08T12:54:20;6.27;;;3.40;;
19946;SDS011;10135;50.702;7.276;2022-12-08T12:58:56;3.97;;;3.10;;
19946;SDS011;10135;50.702;7.276;2022-12-08T13:01:35;5.77;;;3.60;;
19946;SDS011;10135;50.702;7.276;2022-12-08T13:04:03;3.90;;;3.50;;
19946;SDS011;10135;50.702;7.276;2022-12-08T13:06:08;3.70;;;3.07;;
19946;SDS011;10135;50.702;7.276;2022-12-08T13:08:22;3.97;;;3.40;;
19946;SDS011;10135;50.702;7.276;2022-12-08T13:10:30;6.47;;;4.00;;
19946;SDS011;10135;50.702;7.276;2022-12-08T13:12:34;7.53;;;3.60;;
19946;SDS011;10135;50.702;7.276;2022-12-08T13:14:35;4.83;;;3.00;;
19946;SDS011;10135;50.702;7.276;2022-12-08T13:16:48;7.30;;;3.30;;
19946;SDS011;10135;50.702;7.276;2022-12-08T13:18:55;6.23;;;3.40;;
19946;SDS011;10135;50.702;7.276;2022-12-08T13:21:10;3.90;;;3.33;;
19946;SDS011;10135;50.702;7.276;2022-12-08T13:27:38;4.97;;;3.30;;
19946;SDS011;10135;50.702;7.276;2022-12-08T13:30:38;3.27;;;2.97;;
19946;SDS011;10135;50.702;7.276;2022-12-08T13:32:55;4.53;;;3.10;;
19946;SDS011;10135;50.702;7.276;2022-12-08T13:34:59;3.83;;;3.30;;
19946;SDS011;10135;50.702;7.276;2022-12-08T13:39:19;2.83;;;2.60;;
19946;SDS011;10135;50.702;7.276;2022-12-08T13:41:37;5.63;;;3.33;;
19946;SDS011;10135;50.702;7.276;2022-12-08T13:43:47;3.53;;;3.20;;
19946;SDS011;10135;50.702;7.276;2022-12-08T13:45:59;4.00;;;2.87;;
19946;SDS011;10135;50.702;7.276;2022-12-08T13:50:32;3.97;;;2.60;;
19946;SDS011;10135;50.702;7.276;2022-12-08T13:55:14;3.10;;;2.30;;
19946;SDS011;10135;50.702;7.276;2022-12-08T13:57:28;3.30;;;2.30;;
19946;SDS011;10135;50.702;7.276;2022-12-08T13:59:32;3.03;;;2.57;;
19946;SDS011;10135;50.702;7.276;2022-12-08T14:01:38;3.53;;;2.50;;
19946;SDS011;10135;50.702;7.276;2022-12-08T14:03:57;4.90;;;2.73;;
19946;SDS011;10135;50.702;7.276;2022-12-08T14:06:01;2.33;;;2.23;;
19946;SDS011;10135;50.702;7.276;2022-12-08T14:08:03;2.57;;;2.13;;
19946;SDS011;10135;50.702;7.276;2022-12-08T14:10:19;2.53;;;2.07;;
19946;SDS011;10135;50.702;7.276;2022-12-08T14:12:26;2.70;;;2.30;;
19946;SDS011;10135;50.702;7.276;2022-12-08T14:14:39;2.40;;;2.10;;
19946;SDS011;10135;50.702;7.276;2022-12-08T14:16:48;3.73;;;2.13;;
19946;SDS011;10135;50.702;7.276;2022-12-08T14:19:17;2.50;;;2.30;;
19946;SDS011;10135;50.702;7.276;2022-12-08T14:21:22;3.93;;;2.53;;
19946;SDS011;10135;50.702;7.276;2022-12-08T14:23:28;3.10;;;2.50;;
19946;SDS011;10135;50.702;7.276;2022-12-08T14:25:29;3.20;;;2.47;;
19946;SDS011;10135;50.702;7.276;2022-12-08T14:27:35;2.53;;;2.30;;
19946;SDS011;10135;50.702;7.276;2022-12-08T14:31:54;2.67;;;2.40;;
19946;SDS011;10135;50.702;7.276;2022-12-08T14:34:20;2.70;;;2.23;;
19946;SDS011;10135;50.702;7.276;2022-12-08T14:36:23;2.90;;;2.17;;
19946;SDS011;10135;50.702;7.276;2022-12-08T14:38:27;2.50;;;2.30;;
19946;SDS011;10135;50.702;7.276;2022-12-08T14:40:33;5.07;;;2.63;;
19946;SDS011;10135;50.702;7.276;2022-12-08T14:42:44;2.60;;;2.40;;
19946;SDS011;10135;50.702;7.276;2022-12-08T14:45:14;2.47;;;2.27;;
19946;SDS011;10135;50.702;7.276;2022-12-08T14:47:18;2.70;;;2.40;;
19946;SDS011;10135;50.702;7.276;2022-12-08T14:49:33;4.37;;;2.53;;
19946;SDS011;10135;50.702;7.276;2022-12-08T14:51:38;2.53;;;2.30;;
19946;SDS011;10135;50.702;7.276;2022-12-08T14:53:43;4.23;;;2.40;;
19946;SDS011;10135;50.702;7.276;2022-12-08T14:55:46;2.70;;;2.43;;
19946;SDS011;10135;50.702;7.276;2022-12-08T14:57:48;2.53;;;2.30;;
19946;SDS011;10135;50.702;7.276;2022-12-08T14:59:49;3.07;;;2.30;;
19946;SDS011;10135;50.702;7.276;2022-12-08T15:01:51;4.17;;;2.60;;
19946;SDS011;10135;50.702;7.276;2022-12-08T15:04:13;2.63;;;2.43;;
19946;SDS011;10135;50.702;7.276;2022-12-08T15:06:19;4.10;;;2.50;;
19946;SDS011;10135;50.702;7.276;2022-12-08T15:08:21;3.10;;;2.30;;
19946;SDS011;10135;50.702;7.276;2022-12-08T15:10:23;2.60;;;2.43;;
19946;SDS011;10135;50.702;7.276;2022-12-08T15:12:28;2.97;;;2.73;;
19946;SDS011;10135;50.702;7.276;2022-12-08T15:14:34;2.50;;;2.40;;
19946;SDS011;10135;50.702;7.276;2022-12-08T15:16:37;2.90;;;2.70;;
19946;SDS011;10135;50.702;7.276;2022-12-08T15:18:42;3.80;;;2.57;;
19946;SDS011;10135;50.702;7.276;2022-12-08T15:20:44;4.93;;;3.00;;
19946;SDS011;10135;50.702;7.276;2022-12-08T15:22:52;2.87;;;2.60;;
19946;SDS011;10135;50.702;7.276;2022-12-08T15:24:54;3.20;;;2.70;;
19946;SDS011;10135;50.702;7.276;2022-12-08T15:26:56;3.33;;;2.70;;
19946;SDS011;10135;50.702;7.276;2022-12-08T15:28:57;4.40;;;2.60;;
19946;SDS011;10135;50.702;7.276;2022-12-08T15:31:09;3.83;;;3.00;;
19946;SDS011;10135;50.702;7.276;2022-12-08T15:33:10;3.23;;;2.77;;
19946;SDS011;10135;50.702;7.276;2022-12-08T15:35:11;3.97;;;2.80;;
19946;SDS011;10135;50.702;7.276;2022-12-08T15:37:20;2.90;;;2.70;;
19946;SDS011;10135;50.702;7.276;2022-12-08T15:39:35;3.83;;;2.80;;
19946;SDS011;10135;50.702;7.276;2022-12-08T15:41:41;3.07;;;2.60;;
19946;SDS011;10135;50.702;7.276;2022-12-08T15:43:51;3.73;;;2.60;;
19946;SDS011;10135;50.702;7.276;2022-12-08T15:45:54;2.43;;;2.33;;
19946;SDS011;10135;50.702;7.276;2022-12-08T15:48:17;4.27;;;2.83;;
19946;SDS011;10135;50.702;7.276;2022-12-08T15:50:21;5.07;;;3.10;;
19946;SDS011;10135;50.702;7.276;2022-12-08T15:52:23;3.30;;;3.00;;
19946;SDS011;10135;50.702;7.276;2022-12-08T15:54:24;4.10;;;3.00;;
19946;SDS011;10135;50.702;7.276;2022-12-08T15:56:25;3.20;;;2.90;;
19946;SDS011;10135;50.702;7.276;2022-12-08T15:58:25;3.80;;;3.00;;
19946;SDS011;10135;50.702;7.276;2022-12-08T16:00:27;3.03;;;2.73;;
19946;SDS011;10135;50.702;7.276;2022-12-08T16:02:32;4.97;;;3.20;;
19946;SDS011;10135;50.702;7.276;2022-12-08T16:04:33;3.53;;;3.20;;
19946;SDS011;10135;50.702;7.276;2022-12-08T16:06:34;5.27;;;3.10;;
19946;SDS011;10135;50.702;7.276;2022-12-08T16:08:35;4.63;;;2.60;;
19946;SDS011;10135;50.702;7.276;2022-12-08T16:10:35;3.47;;;3.17;;
19946;SDS011;10135;50.702;7.276;2022-12-08T16:12:36;3.50;;;3.20;;
19946;SDS011;10135;50.702;7.276;2022-12-08T16:14:55;4.90;;;3.00;;
19946;SDS011;10135;50.702;7.276;2022-12-08T16:16:56;2.87;;;2.50;;
19946;SDS011;10135;50.702;7.276;2022-12-08T16:18:57;5.33;;;2.60;;
19946;SDS011;10135;50.702;7.276;2022-12-08T16:20:58;3.00;;;2.70;;
19946;SDS011;10135;50.702;7.276;2022-12-08T16:22:59;3.00;;;2.43;;
19946;SDS011;10135;50.702;7.276;2022-12-08T16:25:00;2.80;;;2.57;;
19946;SDS011;10135;50.702;7.276;2022-12-08T16:27:00;4.43;;;2.60;;
19946;SDS011;10135;50.702;7.276;2022-12-08T16:29:02;3.23;;;2.50;;
19946;SDS011;10135;50.702;7.276;2022-12-08T16:31:03;2.97;;;2.40;;
19946;SDS011;10135;50.702;7.276;2022-12-08T16:33:04;2.90;;;2.60;;
19946;SDS011;10135;50.702;7.276;2022-12-08T16:35:05;2.77;;;2.53;;
19946;SDS011;10135;50.702;7.276;2022-12-08T16:37:14;3.40;;;2.37;;
19946;SDS011;10135;50.702;7.276;2022-12-08T16:39:26;2.80;;;2.03;;
19946;SDS011;10135;50.702;7.276;2022-12-08T16:41:27;2.37;;;2.23;;
19946;SDS011;10135;50.702;7.276;2022-12-08T16:43:46;2.47;;;2.30;;
19946;SDS011;10135;50.702;7.276;2022-12-08T16:45:48;2.50;;;2.30;;
19946;SDS011;10135;50.702;7.276;2022-12-08T16:47:49;3.70;;;2.33;;
19946;SDS011;10135;50.702;7.276;2022-12-08T16:49:51;4.03;;;2.00;;
19946;SDS011;10135;50.702;7.276;2022-12-08T16:51:52;2.67;;;2.20;;
19946;SDS011;10135;50.702;7.276;2022-12-08T16:53:53;3.73;;;2.07;;
19946;SDS011;10135;50.702;7.276;2022-12-08T16:55:54;6.60;;;2.53;;
19946;SDS011;10135;50.702;7.276;2022-12-08T16:57:55;4.43;;;2.13;;
19946;SDS011;10135;50.702;7.276;2022-12-08T16:59:55;1.90;;;1.80;;
19946;SDS011;10135;50.702;7.276;2022-12-08T17:01:56;2.07;;;1.87;;
19946;SDS011;10135;50.702;7.276;2022-12-08T17:03:57;2.47;;;2.27;;
19946;SDS011;10135;50.702;7.276;2022-12-08T17:05:58;2.20;;;2.00;;
19946;SDS011;10135;50.702;7.276;2022-12-08T17:07:59;2.20;;;2.00;;
19946;SDS011;10135;50.702;7.276;2022-12-08T17:10:02;2.20;;;2.00;;
19946;SDS011;10135;50.702;7.276;2022-12-08T17:12:04;1.90;;;1.80;;
19946;SDS011;10135;50.702;7.276;2022-12-08T17:14:05;1.90;;;1.80;;
19946;SDS011;10135;50.702;7.276;2022-12-08T17:16:09;2.17;;;2.00;;
19946;SDS011;10135;50.702;7.276;2022-12-08T17:18:14;2.10;;;2.00;;
19946;SDS011;10135;50.702;7.276;2022-12-08T17:20:16;3.10;;;2.33;;
19946;SDS011;10135;50.702;7.276;2022-12-08T17:22:22;4.50;;;1.90;;
19946;SDS011;10135;50.702;7.276;2022-12-08T17:24:27;2.10;;;2.00;;
19946;SDS011;10135;50.702;7.276;2022-12-08T17:26:34;2.23;;;2.03;;
19946;SDS011;10135;50.702;7.276;2022-12-08T17:28:45;2.37;;;2.17;;
19946;SDS011;10135;50.702;7.276;2022-12-08T17:30:53;7.73;;;5.17;;
19946;SDS011;10135;50.702;7.276;2022-12-08T17:32:54;6.00;;;3.80;;
19946;SDS011;10135;50.702;7.276;2022-12-08T17:34:54;3.77;;;3.47;;
19946;SDS011;10135;50.702;7.276;2022-12-08T17:36:55;7.03;;;3.90;;
19946;SDS011;10135;50.702;7.276;2022-12-08T17:38:57;4.63;;;3.80;;
19946;SDS011;10135;50.702;7.276;2022-12-08T17:41:03;3.53;;;3.17;;
19946;SDS011;10135;50.702;7.276;2022-12-08T17:43:05;3.57;;;3.27;;
19946;SDS011;10135;50.702;7.276;2022-12-08T17:45:06;3.40;;;3.10;;
19946;SDS011;10135;50.702;7.276;2022-12-08T17:47:08;5.63;;;3.10;;
19946;SDS011;10135;50.702;7.276;2022-12-08T17:49:09;4.77;;;3.67;;
19946;SDS011;10135;50.702;7.276;2022-12-08T17:51:15;3.53;;;3.23;;
19946;SDS011;10135;50.702;7.276;2022-12-08T17:53:22;3.97;;;3.57;;
19946;SDS011;10135;50.702;7.276;2022-12-08T17:55:25;3.77;;;3.47;;
19946;SDS011;10135;50.702;7.276;2022-12-08T17:57:26;4.60;;;3.70;;
19946;SDS011;10135;50.702;7.276;2022-12-08T17:59:27;6.17;;;3.27;;
19946;SDS011;10135;50.702;7.276;2022-12-08T18:01:29;5.00;;;3.57;;
19946;SDS011;10135;50.702;7.276;2022-12-08T18:03:33;3.70;;;3.40;;
19946;SDS011;10135;50.702;7.276;2022-12-08T18:05:34;4.00;;;3.60;;
19946;SDS011;10135;50.702;7.276;2022-12-08T18:07:35;4.40;;;3.60;;
19946;SDS011;10135;50.702;7.276;2022-12-08T18:09:35;3.53;;;3.23;;
19946;SDS011;10135;50.702;7.276;2022-12-08T18:11:36;3.50;;;3.20;;
19946;SDS011;10135;50.702;7.276;2022-12-08T18:13:38;4.97;;;3.20;;
19946;SDS011;10135;50.702;7.276;2022-12-08T18:15:42;4.10;;;3.60;;
19946;SDS011;10135;50.702;7.276;2022-12-08T18:17:42;4.47;;;3.43;;
19946;SDS011;10135;50.702;7.276;2022-12-08T18:19:43;4.27;;;3.83;;
19946;SDS011;10135;50.702;7.276;2022-12-08T18:21:44;4.53;;;3.87;;
19946;SDS011;10135;50.702;7.276;2022-12-08T18:23:46;4.33;;;3.47;;
19946;SDS011;10135;50.702;7.276;2022-12-08T18:25:47;6.07;;;4.17;;
19946;SDS011;10135;50.702;7.276;2022-12-08T18:27:49;8.93;;;5.83;;
19946;SDS011;10135;50.702;7.276;2022-12-08T18:29:50;5.30;;;4.43;;
19946;SDS011;10135;50.702;7.276;2022-12-08T18:31:50;4.97;;;4.20;;
19946;SDS011;10135;50.702;7.276;2022-12-08T18:33:55;4.50;;;4.10;;
19946;SDS011;10135;50.702;7.276;2022-12-08T18:35:55;4.40;;;4.00;;
19946;SDS011;10135;50.702;7.276;2022-12-08T18:37:56;5.67;;;4.00;;
19946;SDS011;10135;50.702;7.276;2022-12-08T18:39:59;5.23;;;3.90;;
19946;SDS011;10135;50.702;7.276;2022-12-08T18:41:59;5.30;;;3.80;;
19946;SDS011;10135;50.702;7.276;2022-12-08T18:44:21;4.07;;;3.67;;
19946;SDS011;10135;50.702;7.276;2022-12-08T18:46:22;4.40;;;4.00;;
19946;SDS011;10135;50.702;7.276;2022-12-08T18:48:24;5.13;;;4.23;;
19946;SDS011;10135;50.702;7.276;2022-12-08T18:50:24;4.90;;;3.60;;
19946;SDS011;10135;50.702;7.276;2022-12-08T18:52:27;6.30;;;4.10;;
19946;SDS011;10135;50.702;7.276;2022-12-08T18:54:28;5.37;;;3.67;;
19946;SDS011;10135;50.702;7.276;2022-12-08T18:56:29;4.57;;;3.97;;
19946;SDS011;10135;50.702;7.276;2022-12-08T18:58:32;6.03;;;4.40;;
19946;SDS011;10135;50.702;7.276;2022-12-08T19:00:33;6.87;;;4.60;;
19946;SDS011;10135;50.702;7.276;2022-12-08T19:02:34;5.00;;;4.50;;
19946;SDS011;10135;50.702;7.276;2022-12-08T19:04:37;5.80;;;4.70;;
19946;SDS011;10135;50.702;7.276;2022-12-08T19:06:38;5.13;;;4.07;;
19946;SDS011;10135;50.702;7.276;2022-12-08T19:08:39;7.33;;;4.40;;
19946;SDS011;10135;50.702;7.276;2022-12-08T19:10:41;5.03;;;4.43;;
19946;SDS011;10135;50.702;7.276;2022-12-08T19:12:41;6.43;;;4.37;;
19946;SDS011;10135;50.702;7.276;2022-12-08T19:14:42;8.10;;;4.37;;
19946;SDS011;10135;50.702;7.276;2022-12-08T19:16:43;5.20;;;4.30;;
19946;SDS011;10135;50.702;7.276;2022-12-08T19:18:44;5.07;;;4.10;;
19946;SDS011;10135;50.702;7.276;2022-12-08T19:20:44;5.40;;;4.20;;
19946;SDS011;10135;50.702;7.276;2022-12-08T19:22:45;5.30;;;3.90;;
19946;SDS011;10135;50.702;7.276;2022-12-08T19:24:46;5.53;;;4.17;;
19946;SDS011;10135;50.702;7.276;2022-12-08T19:26:46;6.20;;;3.60;;
19946;SDS011;10135;50.702;7.276;2022-12-08T19:28:47;5.63;;;3.93;;
19946;SDS011;10135;50.702;7.276;2022-12-08T19:30:48;4.27;;;3.87;;
19946;SDS011;10135;50.702;7.276;2022-12-08T19:32:49;3.87;;;3.57;;